Time;durP1;ratioP1;P1;durP2;ratioP2;P2;SDS_P1;SDS_P2;PMS_P1;PMS_P2;Temp;Humidity;BMP_temperature;BMP_pressure;BME280_temperature;BME280_humidity;BME280_pressure;Samples;Min_cycle;Max_cycle;Signal;HPM_P1;HPM_P2
2022/08/05 00:00:52;;;;;;;5.70;5.20;;;24.60;90.00;;;;;;6225084;28;20221;-62
2022/08/05 00:03:55;;;;;;;6.13;5.77;;;24.50;90.00;;;;;;6224968;28;23997;-62
2022/08/05 00:06:59;;;;;;;6.10;5.70;;;24.50;90.30;;;;;;6225085;28;20645;-62
2022/08/05 00:10:23;;;;;;;7.10;6.50;;;24.50;90.40;;;;;;6220449;28;20547;-62
2022/08/05 00:13:31;;;;;;;6.03;5.63;;;24.40;90.50;;;;;;6225176;28;20334;-62
2022/08/05 00:16:41;;;;;;;6.87;6.37;;;24.40;90.60;;;;;;6224761;28;20824;-62
2022/08/05 00:19:55;;;;;;;6.20;5.80;;;24.40;90.70;;;;;;6224800;28;20237;-62
2022/08/05 00:23:04;;;;;;;6.20;5.60;;;24.40;90.70;;;;;;6225986;28;20228;-62
2022/08/05 00:26:18;;;;;;;5.60;5.20;;;24.40;90.40;;;;;;6229389;28;20533;-62
2022/08/05 00:29:22;;;;;;;6.07;5.57;;;24.30;90.60;;;;;;6229643;28;20243;-62
2022/08/05 00:32:27;;;;;;;5.53;5.10;;;24.30;90.50;;;;;;6229819;28;20268;-62
2022/08/05 00:35:31;;;;;;;5.73;5.33;;;24.30;90.70;;;;;;6229008;28;20224;-63
2022/08/05 00:38:35;;;;;;;6.13;5.57;;;24.20;91.00;;;;;;6229183;28;20240;-62
2022/08/05 00:41:40;;;;;;;6.13;5.63;;;24.20;90.60;;;;;;6228325;28;20224;-62
2022/08/05 00:44:57;;;;;;;6.47;6.00;;;24.20;90.70;;;;;;6228734;28;20233;-62
2022/08/05 00:48:01;;;;;;;5.70;5.30;;;24.20;90.60;;;;;;6228384;28;20240;-62
2022/08/05 00:51:08;;;;;;;5.90;5.50;;;24.10;90.70;;;;;;6228746;28;20229;-62
2022/08/05 00:54:31;;;;;;;5.60;5.23;;;24.10;90.70;;;;;;6228855;28;20229;-62
2022/08/05 00:57:35;;;;;;;5.67;5.17;;;24.10;90.80;;;;;;6228553;28;20244;-60
2022/08/05 01:00:59;;;;;;;6.10;5.60;;;24.10;91.00;;;;;;6228445;28;20550;-60
2022/08/05 01:04:02;;;;;;;6.43;5.93;;;24.10;90.80;;;;;;6228436;28;20225;-60
2022/08/05 01:07:15;;;;;;;6.10;5.50;;;24.00;90.90;;;;;;6228722;28;20225;-61
2022/08/05 01:10:24;;;;;;;5.83;5.43;;;24.00;90.90;;;;;;6228659;28;20571;-61
2022/08/05 01:13:37;;;;;;;5.70;5.30;;;24.00;90.90;;;;;;6223795;28;20241;-61
2022/08/05 01:17:04;;;;;;;5.20;4.90;;;24.00;91.20;;;;;;6228318;28;20240;-61
2022/08/05 01:20:29;;;;;;;6.13;5.53;;;23.90;91.10;;;;;;6228569;28;20331;-61
2022/08/05 01:23:44;;;;;;;5.43;5.03;;;23.90;91.50;;;;;;6227589;28;20562;-61
2022/08/05 01:27:02;;;;;;;5.73;5.23;;;23.80;91.20;;;;;;6227989;28;20229;-61
2022/08/05 01:30:24;;;;;;;5.17;4.80;;;23.70;91.30;;;;;;6227755;28;20228;-62
2022/08/05 01:33:43;;;;;;;5.20;4.83;;;23.70;91.40;;;;;;6227351;28;20240;-60
2022/08/05 01:37:02;;;;;;;6.47;5.97;;;23.70;91.60;;;;;;6228241;28;20197;-60
2022/08/05 01:40:08;;;;;;;5.93;5.53;;;23.70;91.60;;;;;;6228045;28;20359;-60
2022/08/05 01:43:12;;;;;;;5.50;5.10;;;23.70;91.60;;;;;;6227881;28;20233;-60
2022/08/05 01:46:26;;;;;;;5.90;5.47;;;23.60;91.70;;;;;;6227542;28;20236;-60
2022/08/05 01:49:49;;;;;;;6.43;5.83;;;23.60;91.90;;;;;;6227677;28;20240;-61
2022/08/05 01:53:07;;;;;;;6.17;5.60;;;23.60;91.90;;;;;;6227058;28;20233;-60
2022/08/05 01:56:14;;;;;;;10.43;5.60;;;23.60;92.00;;;;;;6227284;28;20229;-60
2022/08/05 01:59:40;;;;;;;5.70;5.30;;;23.50;92.00;;;;;;6227280;28;20233;-61
2022/08/05 02:02:55;;;;;;;6.30;5.80;;;23.40;92.10;;;;;;6227095;28;20719;-60
2022/08/05 02:05:59;;;;;;;6.17;5.77;;;23.40;92.20;;;;;;6227168;28;20241;-62
2022/08/05 02:09:14;;;;;;;6.60;5.17;;;23.40;92.30;;;;;;6227024;28;20279;-61
2022/08/05 02:12:25;;;;;;;6.17;5.77;;;23.40;92.30;;;;;;6227219;28;20248;-61
2022/08/05 02:15:31;;;;;;;6.80;5.90;;;23.30;92.40;;;;;;6227127;28;20225;-63
2022/08/05 02:18:47;;;;;;;5.70;5.30;;;23.30;92.40;;;;;;6222222;28;20233;-61
2022/08/05 02:21:58;;;;;;;6.27;5.67;;;23.30;92.50;;;;;;6226419;28;20257;-61
2022/08/05 02:25:06;;;;;;;5.40;5.00;;;23.30;92.50;;;;;;6226258;28;20664;-62
2022/08/05 02:28:12;;;;;;;6.93;6.30;;;23.30;92.40;;;;;;6226637;28;20607;-62
2022/08/05 02:31:21;;;;;;;5.60;5.20;;;23.30;92.60;;;;;;6226797;28;20233;-62
2022/08/05 02:34:30;;;;;;;5.83;5.40;;;23.20;92.50;;;;;;6226662;28;20238;-62
2022/08/05 02:37:34;;;;;;;6.03;5.53;;;23.20;92.60;;;;;;6226778;28;20228;-62
2022/08/05 02:40:42;;;;;;;5.80;5.40;;;23.20;92.70;;;;;;6226284;28;20243;-62
2022/08/05 02:43:48;;;;;;;6.07;5.47;;;23.20;92.50;;;;;;6226741;28;20233;-62
2022/08/05 02:47:12;;;;;;;6.37;5.80;;;23.20;92.50;;;;;;6226212;28;20237;-60
2022/08/05 02:50:19;;;;;;;5.40;4.90;;;23.10;92.70;;;;;;6226464;28;20288;-61
2022/08/05 02:53:23;;;;;;;4.70;4.40;;;23.10;92.70;;;;;;6226296;28;20261;-60
2022/08/05 02:56:27;;;;;;;5.67;5.27;;;23.10;92.90;;;;;;6226153;28;20225;-60
2022/08/05 02:59:33;;;;;;;6.20;5.73;;;23.10;92.90;;;;;;6225877;28;20229;-60
2022/08/05 03:02:54;;;;;;;5.70;5.30;;;23.00;92.90;;;;;;6225895;28;20233;-60
2022/08/05 03:05:59;;;;;;;5.33;5.03;;;23.00;93.00;;;;;;6225831;28;20233;-61
2022/08/05 03:09:23;;;;;;;6.07;5.57;;;23.00;92.90;;;;;;6225830;28;20236;-61
2022/08/05 03:12:40;;;;;;;5.50;5.03;;;22.90;92.90;;;;;;6225904;28;20233;-61
2022/08/05 03:15:45;;;;;;;5.50;5.00;;;22.90;93.00;;;;;;6226411;28;20212;-61
2022/08/05 03:18:49;;;;;;;5.67;5.27;;;22.90;93.00;;;;;;6216451;28;20213;-61
2022/08/05 03:21:55;;;;;;;5.30;4.80;;;22.80;93.40;;;;;;6225372;28;20248;-61
2022/08/05 03:25:01;;;;;;;5.70;5.30;;;22.80;93.10;;;;;;6225553;28;20237;-61
2022/08/05 03:28:25;;;;;;;6.33;5.83;;;22.70;93.20;;;;;;6225949;28;20235;-61
2022/08/05 03:31:29;;;;;;;5.20;4.90;;;22.60;93.30;;;;;;6225354;28;20233;-61
2022/08/05 03:34:53;;;;;;;5.13;4.83;;;22.60;93.60;;;;;;6225345;28;20573;-61
2022/08/05 03:37:58;;;;;;;6.07;5.57;;;22.60;93.70;;;;;;6225517;28;20283;-61
2022/08/05 03:41:02;;;;;;;5.30;4.90;;;22.40;93.90;;;;;;6225456;28;20288;-61
2022/08/05 03:44:12;;;;;;;5.73;5.33;;;22.40;94.10;;;;;;6225245;28;20688;-61
2022/08/05 03:47:22;;;;;;;5.90;5.30;;;22.40;94.20;;;;;;6225345;28;20249;-61
2022/08/05 03:50:28;;;;;;;7.90;6.47;;;22.30;94.30;;;;;;6225454;28;20358;-61
2022/08/05 03:53:38;;;;;;;5.67;5.27;;;22.30;94.40;;;;;;6225347;28;20697;-61
2022/08/05 03:57:03;;;;;;;5.93;5.50;;;22.40;94.40;;;;;;6225473;28;20225;-60
2022/08/05 04:00:30;;;;;;;5.77;5.33;;;22.50;94.30;;;;;;6229949;28;20248;-60
2022/08/05 04:03:36;;;;;;;6.03;5.57;;;22.50;94.20;;;;;;6229817;28;20243;-60
2022/08/05 04:06:41;;;;;;;5.40;5.00;;;22.40;94.20;;;;;;6229623;28;20243;-60
2022/08/05 04:09:52;;;;;;;5.70;5.30;;;22.50;94.20;;;;;;6229918;28;20190;-61
2022/08/05 04:12:56;;;;;;;6.50;6.00;;;22.40;94.20;;;;;;6230108;28;20244;-61
2022/08/05 04:16:01;;;;;;;6.20;5.80;;;22.40;94.00;;;;;;6229866;28;20620;-61
2022/08/05 04:19:06;;;;;;;5.70;5.20;;;22.50;94.20;;;;;;6225805;28;20233;-62
2022/08/05 04:22:13;;;;;;;6.23;5.73;;;22.50;94.60;;;;;;6229529;28;20669;-61
2022/08/05 04:25:23;;;;;;;5.50;5.10;;;22.60;94.20;;;;;;6229406;28;20240;-61
2022/08/05 04:28:47;;;;;;;5.73;5.33;;;22.60;94.30;;;;;;6228931;28;20570;-61
2022/08/05 04:31:53;;;;;;;6.30;5.47;;;22.70;94.30;;;;;;6228699;28;20251;-61
2022/08/05 04:34:58;;;;;;;5.77;5.27;;;22.80;94.20;;;;;;6229042;28;20229;-61
2022/08/05 04:38:01;;;;;;;6.53;5.10;;;22.90;93.90;;;;;;6228927;28;20229;-61
2022/08/05 04:41:10;;;;;;;5.83;5.33;;;23.00;93.70;;;;;;6228867;28;20681;-61
2022/08/05 04:44:13;;;;;;;6.10;5.70;;;23.20;93.60;;;;;;6229052;28;20531;-61
2022/08/05 04:47:22;;;;;;;5.87;5.47;;;23.30;93.40;;;;;;6228722;28;20765;-61
2022/08/05 04:50:26;;;;;;;6.13;5.63;;;23.30;93.20;;;;;;6228840;28;20680;-61
2022/08/05 04:53:39;;;;;;;5.87;5.37;;;23.50;93.00;;;;;;6228746;28;20252;-62
2022/08/05 04:56:47;;;;;;;5.97;5.43;;;23.50;93.20;;;;;;6228653;28;20665;-62
2022/08/05 04:59:50;;;;;;;6.43;5.90;;;23.70;92.50;;;;;;6228535;28;20236;-61
2022/08/05 05:02:54;;;;;;;6.70;6.20;;;23.70;92.40;;;;;;6228686;28;20233;-61
2022/08/05 05:06:05;;;;;;;7.10;6.50;;;23.80;92.30;;;;;;6228800;28;20727;-61
2022/08/05 05:09:28;;;;;;;6.73;6.20;;;23.90;92.10;;;;;;6227502;28;20237;-62
2022/08/05 05:12:35;;;;;;;7.57;6.90;;;24.10;92.00;;;;;;6229018;28;20291;-62
2022/08/05 05:15:39;;;;;;;6.87;6.30;;;24.30;91.90;;;;;;6228805;28;20221;-62
2022/08/05 05:19:01;;;;;;;12.50;8.27;;;24.40;91.70;;;;;;6228516;28;20232;-62
2022/08/05 05:22:24;;;;;;;8.00;7.40;;;24.60;91.70;;;;;;6223672;28;20241;-62
2022/08/05 05:25:30;;;;;;;8.43;7.77;;;24.70;91.50;;;;;;6228783;28;20228;-62
2022/08/05 05:28:44;;;;;;;8.20;7.50;;;24.90;91.40;;;;;;6228512;28;20228;-61
2022/08/05 05:31:47;;;;;;;8.90;8.10;;;25.00;91.20;;;;;;6228402;28;20236;-61
2022/08/05 05:34:52;;;;;;;9.90;9.10;;;25.20;91.10;;;;;;6228115;28;20315;-61
2022/08/05 05:37:58;;;;;;;8.50;7.80;;;25.20;90.90;;;;;;6227877;28;20243;-61
2022/08/05 05:41:04;;;;;;;9.90;9.10;;;25.40;90.80;;;;;;6227512;28;20233;-63
2022/08/05 05:44:11;;;;;;;9.13;8.43;;;25.60;90.60;;;;;;6227807;28;20263;-63
2022/08/05 05:47:35;;;;;;;9.70;8.90;;;25.80;90.40;;;;;;6227279;28;20245;-65
2022/08/05 05:50:58;;;;;;;10.70;9.60;;;26.20;89.80;;;;;;6227264;28;20255;-63
2022/08/05 05:54:17;;;;;;;10.03;9.13;;;26.70;88.40;;;;;;6227268;28;20228;-63
2022/08/05 05:57:21;;;;;;;10.67;9.77;;;27.20;86.40;;;;;;6227218;28;20224;-63
2022/08/05 06:00:26;;;;;;;10.60;9.73;;;27.70;84.80;;;;;;6227320;28;20229;-63
2022/08/05 06:03:33;;;;;;;10.20;9.20;;;28.20;82.60;;;;;;6227102;28;20243;-62
2022/08/05 06:06:56;;;;;;;10.40;9.40;;;28.80;80.50;;;;;;6226896;28;20546;-62
2022/08/05 06:10:03;;;;;;;9.70;8.90;;;29.30;77.60;;;;;;6226802;28;20232;-63
2022/08/05 06:13:12;;;;;;;10.00;9.30;;;29.70;75.70;;;;;;6226752;28;20451;-62
2022/08/05 06:16:16;;;;;;;11.23;10.25;;;30.20;73.80;;;;;;6226820;28;20224;-61
2022/08/05 06:19:33;;;;;;;10.93;9.85;;;30.70;71.50;;;;;;6226938;28;20271;-61
2022/08/05 06:22:37;;;;;;;9.95;9.15;;;31.40;68.80;;;;;;6226455;28;20243;-61
2022/08/05 06:25:44;;;;;;;11.60;10.55;;;31.50;67.30;;;;;;6217684;28;20551;-61
2022/08/05 06:29:07;;;;;;;11.68;10.65;;;32.00;65.70;;;;;;6226444;28;20571;-62
2022/08/05 06:32:31;;;;;;;10.45;9.55;;;32.60;63.50;;;;;;6226423;28;20343;-62
2022/08/05 06:35:34;;;;;;;10.25;9.20;;;33.10;61.20;;;;;;6226374;28;20236;-62
2022/08/05 06:38:58;;;;;;;10.40;8.75;;;33.60;59.30;;;;;;6226811;28;20239;-62
2022/08/05 06:42:02;;;;;;;9.65;8.15;;;34.20;57.70;;;;;;6226030;28;20228;-62
2022/08/05 06:45:07;;;;;;;8.45;7.63;;;34.90;55.70;;;;;;6226446;28;20281;-62
2022/08/05 06:48:12;;;;;;;8.73;8.10;;;35.50;54.50;;;;;;6226219;28;20228;-61
2022/08/05 06:51:35;;;;;;;9.70;8.73;;;36.00;53.10;;;;;;6226146;28;20232;-62
2022/08/05 06:54:42;;;;;;;8.52;7.82;;;36.70;50.80;;;;;;6226630;28;20230;-62
2022/08/05 06:57:53;;;;;;;9.43;8.63;;;37.20;49.70;;;;;;6226531;28;20181;-62
2022/08/05 07:01:17;;;;;;;8.52;8.00;;;37.70;48.90;;;;;;6226544;28;20228;-62
2022/08/05 07:04:24;;;;;;;8.85;8.15;;;38.10;47.40;;;;;;6225975;28;20232;-62
2022/08/05 07:07:27;;;;;;;9.32;8.50;;;38.70;46.30;;;;;;6226284;28;20237;-61
2022/08/05 07:10:45;;;;;;;8.65;8.07;;;39.20;44.70;;;;;;6225869;28;20563;-61
2022/08/05 07:17:22;;;;;;;8.60;7.90;;;40.60;42.30;;;;;;6225578;28;20367;-61
2022/08/05 07:20:46;;;;;;;9.05;8.18;;;41.10;40.50;;;;;;6225763;28;20236;-61
2022/08/05 07:23:49;;;;;;;8.68;7.97;;;41.40;39.90;;;;;;6225182;28;20236;-63
2022/08/05 07:26:54;;;;;;;7.50;6.90;;;42.10;38.40;;;;;;6225675;28;20233;-62
2022/08/05 07:29:57;;;;;;;9.02;8.25;;;42.60;37.40;;;;;;6220410;28;20236;-62
2022/08/05 07:33:21;;;;;;;8.63;7.93;;;43.30;36.50;;;;;;6224561;28;20557;-62
2022/08/05 07:36:40;;;;;;;12.35;10.98;;;43.90;35.20;;;;;;6224946;28;20228;-62
2022/08/05 07:39:43;;;;;;;8.00;7.35;;;44.50;34.00;;;;;;6222868;28;20203;-62
2022/08/05 07:43:06;;;;;;;7.53;7.00;;;44.80;33.40;;;;;;6225123;28;20239;-62
2022/08/05 07:46:22;;;;;;;7.35;6.03;;;45.20;32.00;;;;;;6201132;28;20233;-64
2022/08/05 07:49:28;;;;;;;7.15;6.68;;;46.20;31.10;;;;;;6200849;28;20327;-64
2022/08/05 07:52:32;;;;;;;7.00;6.40;;;46.80;29.90;;;;;;6217320;28;20236;-64
2022/08/05 07:55:35;;;;;;;8.80;6.70;;;46.40;29.60;;;;;;6225242;28;20243;-65
2022/08/05 07:58:58;;;;;;;8.32;6.63;;;45.60;30.30;;;;;;6225309;28;20719;-63
2022/08/05 08:02:02;;;;;;;7.03;6.32;;;46.50;30.00;;;;;;6225356;28;20535;-63
2022/08/05 08:05:06;;;;;;;9.82;6.82;;;45.70;30.20;;;;;;6224950;28;20318;-63
2022/08/05 08:08:14;;;;;;;6.97;6.43;;;46.80;29.30;;;;;;6225034;28;20684;-63
2022/08/05 08:11:17;;;;;;;6.90;6.40;;;48.30;28.30;;;;;;6225179;28;20244;-63
2022/08/05 08:14:29;;;;;;;8.18;6.32;;;48.90;27.30;;;;;;6225255;28;20371;-64
2022/08/05 08:17:33;;;;;;;6.50;6.00;;;48.40;27.50;;;;;;6225293;28;20221;-65
2022/08/05 08:20:37;;;;;;;6.20;5.78;;;49.10;27.10;;;;;;6224980;28;20691;-65
2022/08/05 08:24:01;;;;;;;6.35;5.82;;;50.00;26.30;;;;;;6224643;28;20238;-64
2022/08/05 08:27:08;;;;;;;6.30;5.90;;;50.80;25.50;;;;;;6224857;28;20307;-64
2022/08/05 08:30:18;;;;;;;6.97;6.10;;;50.90;25.60;;;;;;6225144;28;20307;-65
2022/08/05 08:33:38;;;;;;;6.25;5.75;;;51.10;25.50;;;;;;6220144;28;20236;-64
2022/08/05 08:36:41;;;;;;;6.57;6.07;;;51.20;25.30;;;;;;6222138;28;20247;-64
2022/08/05 08:39:58;;;;;;;6.70;6.20;;;51.60;24.80;;;;;;6224281;28;20515;-63
2022/08/05 08:43:03;;;;;;;5.28;4.97;;;50.70;25.30;;;;;;6224595;28;20232;-64
2022/08/05 08:46:29;;;;;;;5.43;5.13;;;49.50;25.60;;;;;;6229314;28;20238;-64
2022/08/05 08:49:35;;;;;;;5.55;5.18;;;48.30;26.40;;;;;;6229347;28;20242;-64
2022/08/05 08:53:04;;;;;;;5.40;5.00;;;47.30;27.20;;;;;;6228904;28;20237;-64
2022/08/05 08:56:16;;;;;;;6.55;6.07;;;46.20;27.90;;;;;;6228866;28;20228;-64
2022/08/05 08:59:20;;;;;;;6.30;5.70;;;45.20;28.50;;;;;;6228880;28;20550;-63
2022/08/05 09:02:29;;;;;;;7.30;6.60;;;44.10;29.30;;;;;;6229290;28;20291;-63
2022/08/05 09:05:32;;;;;;;6.53;6.03;;;43.10;31.30;;;;;;6228145;28;20651;-63
2022/08/05 09:08:56;;;;;;;6.32;5.82;;;41.90;32.30;;;;;;6228369;28;20229;-63
2022/08/05 09:12:01;;;;;;;6.97;6.47;;;40.80;33.80;;;;;;6228352;28;20681;-62
2022/08/05 09:15:23;;;;;;;7.45;6.95;;;40.00;35.10;;;;;;6228116;28;20582;-62
2022/08/05 09:18:27;;;;;;;6.53;6.07;;;37.20;39.30;;;;;;6227970;28;20248;-63
2022/08/05 09:21:31;;;;;;;8.27;7.50;;;36.60;40.60;;;;;;6228180;28;20550;-63
2022/08/05 09:24:59;;;;;;;7.32;6.32;;;36.60;40.80;;;;;;6227795;28;20229;-63
2022/08/05 09:28:15;;;;;;;7.95;7.00;;;36.40;41.10;;;;;;6227724;28;20231;-63
2022/08/05 09:31:23;;;;;;;8.50;6.68;;;36.30;41.50;;;;;;6227914;28;20306;-63
2022/08/05 09:34:51;;;;;;;9.20;8.40;;;36.20;41.70;;;;;;6223200;28;20526;-62
2022/08/05 09:37:56;;;;;;;9.48;7.82;;;36.10;42.30;;;;;;6227688;28;20241;-63
2022/08/05 09:41:19;;;;;;;7.57;7.07;;;36.10;42.50;;;;;;6227463;28;20252;-62
2022/08/05 09:44:39;;;;;;;7.35;6.75;;;35.80;42.60;;;;;;6227711;28;20556;-62
2022/08/05 09:47:43;;;;;;;7.22;6.75;;;35.70;43.10;;;;;;6227459;28;20308;-63
2022/08/05 09:51:00;;;;;;;7.05;6.55;;;35.30;43.60;;;;;;6227490;28;20224;-62
2022/08/05 09:54:07;;;;;;;6.75;6.25;;;35.30;43.80;;;;;;6227426;28;20243;-62
2022/08/05 09:57:12;;;;;;;7.82;7.22;;;35.40;43.10;;;;;;6225980;28;20225;-61
2022/08/05 10:00:26;;;;;;;8.77;8.07;;;35.50;43.40;;;;;;6226602;28;20572;-62
2022/08/05 10:03:33;;;;;;;6.93;6.53;;;35.50;43.40;;;;;;6226068;28;20228;-62
2022/08/05 10:06:57;;;;;;;7.82;7.32;;;35.50;43.50;;;;;;6202648;28;20229;-63
2022/08/05 10:10:04;;;;;;;6.70;6.20;;;35.70;43.60;;;;;;6210109;28;20303;-62
2022/08/05 10:13:28;;;;;;;6.80;6.30;;;35.70;42.90;;;;;;6226385;28;20240;-62
2022/08/05 10:16:47;;;;;;;7.55;6.82;;;35.80;42.90;;;;;;6226844;28;20232;-61
2022/08/05 10:19:55;;;;;;;7.75;7.10;;;35.90;43.60;;;;;;6226664;28;20243;-62
2022/08/05 10:23:13;;;;;;;7.65;7.05;;;35.90;43.60;;;;;;6226392;28;20676;-62
2022/08/05 10:26:37;;;;;;;6.85;6.35;;;35.90;43.80;;;;;;6226547;28;20559;-62
2022/08/05 10:29:53;;;;;;;6.65;6.22;;;35.90;43.80;;;;;;6227000;28;20247;-63
2022/08/05 10:33:18;;;;;;;7.15;6.15;;;35.80;44.50;;;;;;6226358;28;20229;-63
2022/08/05 10:36:22;;;;;;;6.68;6.28;;;35.70;44.40;;;;;;6226336;28;20228;-63
2022/08/05 10:39:33;;;;;;;7.82;7.22;;;35.90;43.90;;;;;;6225884;28;20239;-63
2022/08/05 10:43:02;;;;;;;6.93;6.43;;;35.90;44.80;;;;;;6226158;28;20228;-63
2022/08/05 10:46:08;;;;;;;7.28;6.63;;;35.80;45.40;;;;;;6226416;28;20232;-62
2022/08/05 10:49:15;;;;;;;6.88;6.28;;;35.90;45.00;;;;;;6226369;28;20331;-63
2022/08/05 10:52:39;;;;;;;7.20;6.70;;;36.00;44.90;;;;;;6226499;28;20240;-62
2022/08/05 10:56:03;;;;;;;6.22;5.72;;;35.70;45.30;;;;;;6226291;28;20327;-62
2022/08/05 10:59:29;;;;;;;5.38;5.07;;;35.30;45.70;;;;;;6226144;28;20247;-63
2022/08/05 11:03:12;;;;;;;6.30;5.90;;;35.30;45.20;;;;;;6225573;28;20248;-62
2022/08/05 11:06:30;;;;;;;6.50;6.10;;;35.30;45.10;;;;;;6225211;28;20236;-64
2022/08/05 11:09:44;;;;;;;6.10;5.70;;;35.50;45.00;;;;;;6224274;28;20220;-63
2022/08/05 11:12:49;;;;;;;7.25;6.55;;;35.70;45.00;;;;;;6223418;28;20296;-63
2022/08/05 11:16:21;;;;;;;7.18;6.57;;;35.70;44.40;;;;;;6224700;28;20539;-62
2022/08/05 11:19:45;;;;;;;7.05;6.53;;;35.70;45.20;;;;;;6225095;28;20232;-62
2022/08/05 11:23:35;;;;;;;6.65;6.15;;;35.60;45.50;;;;;;6220245;28;20232;-62
2022/08/05 11:27:30;;;;;;;6.25;5.85;;;35.70;46.00;;;;;;6225361;28;20233;-62
2022/08/05 11:31:18;;;;;;;7.18;6.57;;;35.80;46.00;;;;;;6224421;28;20239;-62
2022/08/05 11:34:42;;;;;;;6.88;6.47;;;35.90;46.00;;;;;;6225897;28;20229;-62
2022/08/05 11:38:03;;;;;;;6.53;5.75;;;35.80;45.50;;;;;;6225266;28;20681;-63
2022/08/05 11:41:30;;;;;;;6.68;6.28;;;35.80;45.60;;;;;;6225267;28;20232;-63
2022/08/05 11:45:02;;;;;;;6.70;6.30;;;35.80;45.80;;;;;;6219799;28;20240;-63
2022/08/05 11:48:08;;;;;;;7.78;7.10;;;35.90;45.80;;;;;;6223585;28;20220;-63
2022/08/05 11:51:14;;;;;;;7.47;6.97;;;35.80;46.50;;;;;;6224669;28;20672;-63
2022/08/05 11:54:38;;;;;;;7.07;6.57;;;35.80;46.60;;;;;;6225163;28;20231;-63
2022/08/05 11:57:47;;;;;;;6.28;5.88;;;35.80;46.60;;;;;;6224465;28;20228;-63
2022/08/05 12:01:13;;;;;;;7.75;7.15;;;36.00;46.30;;;;;;6221857;28;20239;-63
2022/08/05 12:04:21;;;;;;;6.88;6.40;;;35.80;46.20;;;;;;6224433;28;20240;-63
2022/08/05 12:07:34;;;;;;;8.45;7.85;;;35.90;46.50;;;;;;6222342;28;20247;-63
2022/08/05 12:10:59;;;;;;;7.13;6.63;;;35.80;46.60;;;;;;6223709;28;20679;-66
2022/08/05 12:14:09;;;;;;;7.57;7.07;;;35.80;46.80;;;;;;6224654;28;20243;-64
2022/08/05 12:17:14;;;;;;;7.82;7.22;;;35.80;46.50;;;;;;6224842;28;20752;-64
2022/08/05 12:20:37;;;;;;;7.65;7.10;;;35.90;46.70;;;;;;6228686;28;20248;-63
2022/08/05 12:23:51;;;;;;;7.15;6.75;;;35.60;47.00;;;;;;6229270;28;20236;-63
2022/08/05 12:26:55;;;;;;;7.20;6.70;;;35.70;47.40;;;;;;6229572;28;20228;-63
2022/08/05 12:30:01;;;;;;;7.97;7.47;;;35.80;46.90;;;;;;6229334;28;20300;-63
2022/08/05 12:33:05;;;;;;;7.60;7.07;;;35.90;46.70;;;;;;6228925;28;20240;-63
2022/08/05 12:36:28;;;;;;;7.05;6.65;;;35.80;46.90;;;;;;6226550;28;20307;-63
2022/08/05 12:39:33;;;;;;;7.45;6.95;;;35.60;47.50;;;;;;6228608;28;20291;-63
2022/08/05 12:42:40;;;;;;;7.65;7.20;;;35.40;48.40;;;;;;6229226;28;20271;-63
2022/08/05 12:45:56;;;;;;;7.68;7.18;;;35.40;48.30;;;;;;6223507;28;20644;-65
2022/08/05 12:49:01;;;;;;;7.40;6.90;;;35.30;48.40;;;;;;6227223;28;20197;-66
2022/08/05 12:52:17;;;;;;;6.82;6.32;;;35.40;48.60;;;;;;6227155;28;20316;-63
2022/08/05 12:55:31;;;;;;;7.22;6.65;;;35.60;48.10;;;;;;6226592;28;20233;-62
2022/08/05 12:58:37;;;;;;;8.50;6.57;;;35.50;47.70;;;;;;6228387;28;20308;-61
2022/08/05 13:02:02;;;;;;;6.95;6.50;;;35.60;48.10;;;;;;6227978;28;20274;-63
2022/08/05 13:05:09;;;;;;;7.15;6.63;;;35.70;47.70;;;;;;6227317;28;20248;-63
2022/08/05 13:08:18;;;;;;;6.50;6.15;;;35.60;47.30;;;;;;6227359;28;20252;-63
2022/08/05 13:11:22;;;;;;;7.05;6.65;;;35.60;47.60;;;;;;6227337;28;20653;-63
2022/08/05 13:14:47;;;;;;;7.43;6.72;;;35.70;48.00;;;;;;6229504;28;20233;-62
2022/08/05 13:18:10;;;;;;;9.65;6.90;;;35.80;47.50;;;;;;6216917;28;20645;-62
2022/08/05 13:21:22;;;;;;;6.30;5.90;;;35.80;47.50;;;;;;6227589;28;20221;-63
2022/08/05 13:24:30;;;;;;;7.57;7.07;;;35.80;47.30;;;;;;6227808;28;20251;-62
2022/08/05 13:27:56;;;;;;;6.80;6.40;;;35.80;47.40;;;;;;6227530;28;20225;-62
2022/08/05 13:30:59;;;;;;;6.97;6.57;;;35.80;47.30;;;;;;6226745;28;20283;-63
2022/08/05 13:34:17;;;;;;;7.05;6.60;;;35.90;47.60;;;;;;6226888;28;20240;-62
2022/08/05 13:37:27;;;;;;;6.15;5.75;;;35.70;47.20;;;;;;6227959;28;20244;-62
2022/08/05 13:40:37;;;;;;;6.75;6.25;;;35.60;46.60;;;;;;6228118;28;20243;-62
2022/08/05 13:43:54;;;;;;;6.80;6.35;;;35.60;46.70;;;;;;6226588;28;20539;-62
2022/08/05 13:46:57;;;;;;;7.03;6.47;;;35.70;46.70;;;;;;6227258;28;20259;-63
2022/08/05 13:50:12;;;;;;;7.45;6.95;;;35.60;47.20;;;;;;6225727;28;20227;-63
2022/08/05 13:53:18;;;;;;;6.75;6.30;;;35.60;47.70;;;;;;6225532;28;20235;-63
2022/08/05 13:56:22;;;;;;;6.90;6.40;;;35.50;47.80;;;;;;6225227;28;20228;-63
2022/08/05 13:59:25;;;;;;;7.05;6.55;;;35.50;47.70;;;;;;6225921;28;20256;-62
2022/08/05 14:02:32;;;;;;;7.03;6.53;;;35.60;48.10;;;;;;6225096;28;20534;-61
2022/08/05 14:05:36;;;;;;;6.10;5.70;;;35.60;48.20;;;;;;6225394;28;20220;-62
2022/08/05 14:09:00;;;;;;;7.38;6.85;;;35.50;48.00;;;;;;6226582;28;20232;-62
2022/08/05 14:12:10;;;;;;;6.45;6.05;;;35.40;48.40;;;;;;6226418;28;20228;-62
2022/08/05 14:15:34;;;;;;;6.50;6.10;;;35.30;48.80;;;;;;6226425;28;20225;-61
2022/08/05 14:18:57;;;;;;;6.85;6.45;;;35.40;48.60;;;;;;6225164;28;20577;-62
2022/08/05 14:22:08;;;;;;;7.63;5.90;;;35.30;47.70;;;;;;6223426;28;20235;-62
2022/08/05 14:25:14;;;;;;;6.45;6.05;;;35.10;47.90;;;;;;6226196;28;20224;-62
2022/08/05 14:28:24;;;;;;;7.18;6.63;;;35.10;48.00;;;;;;6227332;28;20252;-62
2022/08/05 14:31:29;;;;;;;7.20;6.60;;;34.90;48.30;;;;;;6226590;28;20747;-62
2022/08/05 14:34:52;;;;;;;6.75;6.25;;;34.80;48.30;;;;;;6226255;28;20243;-62
2022/08/05 14:38:00;;;;;;;6.43;6.03;;;34.70;48.20;;;;;;6225777;28;20304;-61
2022/08/05 14:41:04;;;;;;;6.60;6.20;;;34.60;48.70;;;;;;6225970;28;20228;-61
2022/08/05 14:44:09;;;;;;;6.75;6.35;;;34.50;48.40;;;;;;6223551;28;20228;-62
2022/08/05 14:47:23;;;;;;;6.78;6.15;;;34.30;48.70;;;;;;6223126;28;20567;-63
2022/08/05 14:50:47;;;;;;;7.00;6.38;;;34.30;48.90;;;;;;6201850;28;20237;-61
2022/08/05 14:53:52;;;;;;;6.75;6.20;;;34.20;48.80;;;;;;6201506;28;20611;-61
2022/08/05 14:57:15;;;;;;;6.72;6.32;;;34.10;48.90;;;;;;6211536;28;20247;-61
2022/08/05 15:00:20;;;;;;;6.25;5.82;;;34.00;48.80;;;;;;6225970;28;20236;-61
2022/08/05 15:03:31;;;;;;;6.75;6.25;;;34.10;49.00;;;;;;6225535;28;20236;-62
2022/08/05 15:06:41;;;;;;;6.70;6.10;;;34.10;49.20;;;;;;6225597;28;20220;-61
2022/08/05 15:09:52;;;;;;;6.72;6.22;;;34.10;49.80;;;;;;6225362;28;20200;-61
2022/08/05 15:12:58;;;;;;;6.57;5.95;;;34.00;49.60;;;;;;6223151;28;20259;-62
2022/08/05 15:16:06;;;;;;;7.15;6.55;;;33.90;49.70;;;;;;6225382;28;20678;-61
2022/08/05 15:19:15;;;;;;;6.20;5.65;;;33.90;50.10;;;;;;6222840;28;20221;-61
2022/08/05 15:22:25;;;;;;;6.28;5.88;;;33.90;50.10;;;;;;6225000;28;20321;-61
2022/08/05 15:25:32;;;;;;;6.38;5.93;;;33.90;50.20;;;;;;6224934;28;20227;-61
2022/08/05 15:28:55;;;;;;;7.00;6.50;;;34.00;50.20;;;;;;6224330;28;20227;-60
2022/08/05 15:31:59;;;;;;;6.25;5.75;;;33.90;50.50;;;;;;6224854;28;20228;-61
2022/08/05 15:35:06;;;;;;;6.00;5.60;;;33.90;51.50;;;;;;6225124;28;20220;-60
2022/08/05 15:38:14;;;;;;;6.75;6.15;;;33.90;50.80;;;;;;6225435;28;20236;-61
2022/08/05 15:41:39;;;;;;;6.28;5.88;;;34.00;50.80;;;;;;6225224;28;20236;-59
2022/08/05 15:44:59;;;;;;;6.28;5.90;;;33.90;50.80;;;;;;6225446;28;20239;-61
2022/08/05 15:48:03;;;;;;;6.35;5.85;;;33.90;51.00;;;;;;6217703;28;20240;-60
2022/08/05 15:51:06;;;;;;;6.72;6.32;;;33.90;51.10;;;;;;6200626;28;20232;-61
2022/08/05 15:54:09;;;;;;;6.63;6.22;;;33.80;51.50;;;;;;6203016;28;20665;-62
2022/08/05 15:57:18;;;;;;;7.05;6.45;;;33.80;51.70;;;;;;6222007;28;20231;-61
2022/08/05 16:00:21;;;;;;;6.00;5.60;;;33.70;52.10;;;;;;6225331;28;20219;-60
2022/08/05 16:03:37;;;;;;;7.25;5.80;;;33.60;52.20;;;;;;6229397;28;20239;-62
2022/08/05 16:06:43;;;;;;;7.07;6.47;;;33.60;52.50;;;;;;6230216;28;20292;-62
2022/08/05 16:09:47;;;;;;;6.68;6.00;;;33.50;52.80;;;;;;6229396;28;20228;-62
2022/08/05 16:12:51;;;;;;;6.15;5.85;;;33.50;53.20;;;;;;6229632;28;20247;-65
2022/08/05 16:15:57;;;;;;;6.53;6.03;;;33.40;53.50;;;;;;6229519;28;20200;-62
2022/08/05 16:19:01;;;;;;;5.90;5.50;;;33.40;54.20;;;;;;6229868;28;20201;-62
2022/08/05 16:22:04;;;;;;;6.45;6.05;;;33.40;54.70;;;;;;6229692;28;20249;-61
2022/08/05 16:25:09;;;;;;;6.78;6.28;;;33.30;54.80;;;;;;6229769;28;20247;-61
2022/08/05 16:28:13;;;;;;;6.40;5.97;;;33.30;55.00;;;;;;6229759;28;20235;-62
2022/08/05 16:31:17;;;;;;;6.57;6.18;;;33.20;55.10;;;;;;6229215;28;20231;-62
2022/08/05 16:34:21;;;;;;;6.35;5.95;;;33.20;55.10;;;;;;6229378;28;20225;-62
2022/08/05 16:37:26;;;;;;;6.97;6.47;;;33.20;55.40;;;;;;6229291;28;20370;-62
2022/08/05 16:40:49;;;;;;;7.55;6.50;;;33.20;55.60;;;;;;6228994;28;20236;-62